Aeroporto :
LOGIN :

Iscrizione | Disclaimer

   EN    FR    IT 

 










Sommario :    VFR   VFR Marginale   IFR   IFR Intensivo   IFR Molto Intensivo
Visibilità : 
Base nubi : 
>= 8 km
>= 3000ft
5 / 8 km
1000 / 3000 ft
1500m / 5 km
500 / 1000 ft
800 / 1500m
200 / 500 ft
< 800m
< 200 ft
Simboli :   Temporali  Nebbia  Neve Forte  Precipitazioni Forti  Vento > 20 kt
SIGMETs :   Varie  Temporali  Ghiacco  Turbolenza  Onda orograficha  Ceneri Vulcaniche






- Altitudine del aeroporto : 314 ft
- Codice IATA : OTP


LROP - Bucarest - Henri Coanda

ULTIMO METAR :
  • 311600Z 28013KT CAVOK 20/06 Q1008 NOSIG

METARs OBSOLETI :
  • 311530Z 28013KT CAVOK 21/07 Q1008 NOSIG
  • 311500Z 29013KT CAVOK 22/07 Q1008 NOSIG
  • 311430Z 28019KT CAVOK 22/07 Q1008 NOSIG
  • 311400Z 29019KT CAVOK 22/06 Q1009 NOSIG
  • 311330Z 28019KT 250V310 CAVOK 22/07 Q1009 NOSIG

TAF TAF LROP
Valido dal 31 a 12 ore il 01 a 12 ore UTC


311100Z 3112/0112 26018KT CAVOK
TEMPO 3112/3117 26020G30KT
BECMG 3120/3122 26008KT



MetMap, La meteo Aeronautica in un colpo d'occhio ! - Copyright ORBIFLY Dicembre 2007 - Disclaimer

ORBIFLY MET'MAP TEAM :

Programmazione e sviluppo : Alexandra Zaïnal
Concezione : Baudouin d'Aumeries
Aiuto per la programmazione : Marc-Olivier Méhu
Supporto tecnico e logistico : Manuel Goepfert
Aiuto per la traduzione : Arnaldo La Scala

Contatto : metmap@orbifly.com




FONTI E CREDITI :

   NOAA